Portland, Missouri
Current Conditions -  °F | °C
As of 5:53 AM on Friday 28 Nov 2014 (Local Time) from KJEF Reporting Station
Clear Clear  
Wind Chill: 23°   Ceiling: Unl
Heat Index: 30°   Visibility: 10mi
Dew Point: 23°   Wind: 7mph
Humidity: 75%   Direction: 110°ESE
Pressure: 30.2"   Gusts: NA
Location:  38.71°N, 91.72°W
Report Text: KJEF 281153Z 11006KT 10SM CLR M01/M05 A3020 RMK AO2 SLP221 T10111050 11011 21022 56034 $
Loading
Personal Weather Stations






























Interactive Weather Map New forecast layout! Learn more

10-Day Weather Forecast

Advertisements
Track Severe Weather on mobile